Time;durP1;ratioP1;P1;durP2;ratioP2;P2;SDS_P1;SDS_P2;PMS_P1;PMS_P2;Temp;Humidity;BMP_temperature;BMP_pressure;BME280_temperature;BME280_humidity;BME280_pressure;Samples;Min_cycle;Max_cycle;Signal;HPM_P1;HPM_P2
2022/02/05 00:01:54;;;;;;;6.43;1.93;;;4.40;1.00;4.80;100334.00;;;;5032507;28;20472;-83
2022/02/05 00:04:23;;;;;;;3.70;1.53;;;4.30;1.00;4.80;100337.00;;;;5016456;28;20483;-81
2022/02/05 00:06:54;;;;;;;5.63;1.70;;;4.30;1.00;4.80;100352.00;;;;5012317;28;20476;-82
2022/02/05 00:09:37;;;;;;;3.67;1.70;;;4.40;1.00;4.70;100352.00;;;;5010462;28;20464;-82
2022/02/05 00:12:24;;;;;;;3.83;2.27;;;4.20;1.00;4.70;100339.00;;;;5013964;28;20505;-85
2022/02/05 00:15:15;;;;;;;5.87;1.90;;;4.20;1.00;4.60;100351.00;;;;5016396;28;20472;-82
2022/02/05 00:42:41;;;;;;;2.70;1.33;;;3.90;1.00;4.30;100567.00;;;;5027548;28;20469;-83
2022/02/05 00:45:12;;;;;;;7.07;1.90;;;3.80;1.00;4.30;100564.00;;;;5009833;28;20465;-81
2022/02/05 00:47:46;;;;;;;5.67;1.60;;;3.80;1.00;4.30;100565.00;;;;5012298;28;20818;-82
2022/02/05 00:50:20;;;;;;;7.80;2.47;;;3.80;1.00;4.20;100565.00;;;;5009329;28;20489;-82
2022/02/05 00:52:59;;;;;;;3.57;1.40;;;3.80;1.00;4.20;100569.00;;;;5013416;28;20456;-82
2022/02/05 00:55:33;;;;;;;3.43;1.93;;;3.80;1.00;4.20;100578.00;;;;5023014;28;20460;-82
2022/02/05 00:58:03;;;;;;;5.83;2.00;;;3.70;1.00;4.20;100577.00;;;;5022116;28;20457;-81
2022/02/05 01:00:33;;;;;;;4.07;1.50;;;3.70;1.00;4.20;100580.00;;;;5033508;28;20480;-80
2022/02/05 01:03:02;;;;;;;6.80;2.13;;;3.80;1.00;4.20;100588.00;;;;5010889;28;20466;-82
2022/02/05 01:05:35;;;;;;;5.40;1.90;;;3.70;1.00;4.10;100599.00;;;;5011032;28;20470;-82
2022/02/05 01:08:05;;;;;;;11.17;4.20;;;3.60;1.00;4.10;100583.00;;;;5008700;28;20947;-81
2022/02/05 01:10:34;;;;;;;4.63;1.80;;;3.60;1.00;4.00;100596.00;;;;5010368;28;20482;-82
2022/02/05 01:13:06;;;;;;;5.33;1.80;;;3.60;1.00;4.00;100615.00;;;;5009993;28;20467;-81
2022/02/05 01:15:40;;;;;;;4.27;2.40;;;3.60;1.00;4.00;100615.00;;;;5007680;28;20542;-81
2022/02/05 01:18:11;;;;;;;8.30;2.10;;;3.50;1.00;4.00;100620.00;;;;5007627;28;20457;-81
2022/02/05 01:21:06;;;;;;;7.70;2.30;;;3.50;1.00;4.00;100635.00;;;;5008445;28;20486;-83
2022/02/05 01:23:41;;;;;;;4.37;2.50;;;3.50;1.00;3.90;100639.00;;;;5008817;28;20457;-81
2022/02/05 01:26:16;;;;;;;4.23;1.90;;;3.50;1.00;3.90;100630.00;;;;5010255;28;20456;-81
2022/02/05 01:28:49;;;;;;;3.90;1.93;;;3.50;1.00;4.00;100657.00;;;;5010677;28;20465;-82
2022/02/05 01:31:22;;;;;;;4.63;2.00;;;3.50;1.00;4.00;100663.00;;;;5008813;28;20481;-82
2022/02/05 01:34:01;;;;;;;4.40;2.10;;;3.50;1.00;4.10;100674.00;;;;5011820;28;20454;-80
2022/02/05 01:39:28;;;;;;;5.10;2.00;;;3.50;1.00;4.00;100673.00;;;;5010261;28;20540;-81
2022/02/05 01:48:50;;;;;;;5.47;2.17;;;3.50;1.00;4.10;100675.00;;;;5010712;28;20480;-81
2022/02/05 01:50:57;;;;;;;5.07;2.20;;;3.50;1.00;4.10;100685.00;;;;5018881;28;20481;-81
2022/02/05 01:53:34;;;;;;;7.50;2.30;;;3.50;1.00;4.10;100686.00;;;;5016284;28;20943;-81
2022/02/05 01:59:10;;;;;;;9.50;1.90;;;3.60;1.00;4.10;100687.00;;;;5002739;28;20855;-81
2022/02/05 02:10:40;;;;;;;5.13;2.33;;;3.70;1.00;4.30;100711.00;;;;5010961;28;20500;-80
2022/02/05 02:16:08;;;;;;;6.63;2.33;;;3.80;1.00;4.20;100704.00;;;;5014717;28;20466;-82
2022/02/05 02:18:50;;;;;;;4.97;2.50;;;3.80;1.00;4.20;100715.00;;;;5010926;28;20978;-80
2022/02/05 02:21:28;;;;;;;4.40;1.93;;;3.80;1.00;4.20;100710.00;;;;5010604;28;20520;-80
2022/02/05 02:24:05;;;;;;;6.17;2.23;;;3.80;1.00;4.20;100704.00;;;;5013479;28;20461;-82
2022/02/05 02:26:45;;;;;;;6.50;2.10;;;3.90;1.00;4.30;100724.00;;;;5013831;28;20457;-80
2022/02/05 02:29:18;;;;;;;4.93;2.00;;;4.00;1.00;4.20;100718.00;;;;5013265;28;20840;-81
2022/02/05 02:31:50;;;;;;;8.20;2.50;;;3.80;1.00;4.20;100718.00;;;;5015735;28;20443;-80
2022/02/05 02:34:23;;;;;;;3.77;2.10;;;3.70;1.00;4.20;100733.00;;;;5028805;28;20434;-82
2022/02/05 02:36:56;;;;;;;6.00;2.50;;;3.70;1.00;4.20;100725.00;;;;5028690;28;20452;-81
2022/02/05 02:39:29;;;;;;;3.33;2.10;;;3.60;1.00;4.20;100726.00;;;;5014619;28;20458;-81
2022/02/05 02:42:02;;;;;;;8.00;2.20;;;3.70;1.00;4.10;100733.00;;;;5031890;28;20488;-81
2022/02/05 02:44:30;;;;;;;4.70;2.30;;;3.70;1.00;4.10;100730.00;;;;5013531;28;20457;-81
2022/02/05 02:46:58;;;;;;;10.90;2.23;;;3.60;1.00;4.10;100736.00;;;;5020104;28;20480;-80
2022/02/05 02:49:41;;;;;;;8.87;2.40;;;3.60;1.00;4.00;100739.00;;;;5037196;28;20461;-81
2022/02/05 02:57:50;;;;;;;4.83;2.63;;;3.50;1.00;4.00;100742.00;;;;5014326;28;20529;-81
2022/02/05 03:00:19;;;;;;;4.40;2.10;;;3.50;1.00;4.00;100747.00;;;;5014677;28;20488;-82
2022/02/05 03:02:47;;;;;;;9.43;3.20;;;3.50;1.00;3.90;100754.00;;;;5015006;28;20465;-82
2022/02/05 03:05:15;;;;;;;5.60;2.50;;;3.40;1.00;3.90;100751.00;;;;5016141;28;20453;-81
2022/02/05 03:07:45;;;;;;;7.27;2.60;;;3.40;1.00;3.90;100752.00;;;;5019715;28;20529;-81
2022/02/05 03:10:14;;;;;;;5.13;2.10;;;3.40;1.00;3.90;100752.00;;;;5020337;28;20487;-79
2022/02/05 03:12:43;;;;;;;4.30;2.57;;;3.40;1.00;3.90;100747.00;;;;5018829;28;20460;-82
2022/02/05 03:15:15;;;;;;;4.53;2.70;;;3.40;1.00;3.90;100762.00;;;;5018276;28;20434;-81
2022/02/05 03:17:54;;;;;;;5.30;2.63;;;3.40;1.00;3.90;100759.00;;;;5042480;28;20450;-82
2022/02/05 03:20:22;;;;;;;6.60;2.57;;;3.40;1.00;3.90;100771.00;;;;5017840;28;20461;-82
2022/02/05 03:22:52;;;;;;;3.93;2.30;;;3.40;1.00;3.90;100759.00;;;;5009319;28;20519;-82
2022/02/05 03:25:20;;;;;;;4.83;2.33;;;3.40;1.00;3.80;100759.00;;;;5008063;28;20826;-83
2022/02/05 03:27:49;;;;;;;5.33;2.20;;;3.30;1.00;3.90;100753.00;;;;5008053;28;20473;-82
2022/02/05 03:30:17;;;;;;;6.27;2.53;;;3.30;1.00;3.80;100774.00;;;;5008452;28;20511;-82
2022/02/05 03:32:45;;;;;;;3.93;2.40;;;3.30;1.00;3.90;100790.00;;;;5010045;28;20464;-82
2022/02/05 03:35:13;;;;;;;8.43;3.70;;;3.30;1.00;3.90;100793.00;;;;5032730;28;20450;-81
2022/02/05 03:37:41;;;;;;;6.70;2.57;;;3.30;1.00;3.80;100795.00;;;;5007425;28;20461;-82
2022/02/05 03:40:13;;;;;;;4.87;2.60;;;3.30;1.00;3.80;100804.00;;;;5024433;28;20524;-82
2022/02/05 03:42:41;;;;;;;5.70;1.90;;;3.30;1.00;3.80;100797.00;;;;5008295;28;21009;-82
2022/02/05 03:45:11;;;;;;;5.53;2.97;;;3.30;1.00;3.80;100794.00;;;;5008500;28;20464;-82
2022/02/05 03:47:39;;;;;;;6.00;2.40;;;3.20;1.00;3.80;100795.00;;;;5008168;28;20858;-82
2022/02/05 03:50:08;;;;;;;5.00;2.23;;;3.30;1.00;3.70;100783.00;;;;5008699;28;20462;-82
2022/02/05 03:52:38;;;;;;;5.83;2.53;;;3.20;1.00;3.70;100780.00;;;;5010839;28;20465;-82
2022/02/05 03:55:08;;;;;;;6.00;2.57;;;3.40;1.00;3.70;100805.00;;;;5014173;28;20437;-83
2022/02/05 03:57:38;;;;;;;3.93;2.20;;;3.20;1.00;3.70;100818.00;;;;5009223;28;20541;-82
2022/02/05 04:00:08;;;;;;;6.50;2.40;;;3.10;1.00;3.70;100808.00;;;;5007610;28;20508;-83
2022/02/05 04:02:39;;;;;;;4.27;2.60;;;3.10;1.00;3.60;100805.00;;;;5008669;28;20473;-82
2022/02/05 04:05:09;;;;;;;4.40;2.50;;;3.10;1.00;3.70;100799.00;;;;5024324;28;20454;-82
2022/02/05 04:07:41;;;;;;;5.17;2.70;;;3.10;1.00;3.60;100820.00;;;;5008012;28;20516;-82
2022/02/05 04:10:15;;;;;;;6.43;2.70;;;3.10;1.00;3.60;100820.00;;;;5007241;28;20460;-83
2022/02/05 04:18:16;;;;;;;5.10;2.77;;;3.10;1.00;3.60;100826.00;;;;5005988;28;20449;-83
2022/02/05 04:20:44;;;;;;;5.13;2.73;;;3.10;1.00;3.70;100819.00;;;;5007891;28;20469;-83
2022/02/05 04:23:13;;;;;;;12.20;2.83;;;3.10;1.00;3.70;100830.00;;;;5009279;28;20455;-82
2022/02/05 04:25:42;;;;;;;5.87;2.90;;;3.10;1.00;3.70;100828.00;;;;5029390;28;20472;-81
2022/02/05 04:28:11;;;;;;;9.70;3.30;;;3.10;1.00;3.70;100829.00;;;;5008950;28;20458;-81
2022/02/05 04:30:40;;;;;;;6.33;2.80;;;3.10;1.00;3.70;100838.00;;;;5008015;28;20481;-81
2022/02/05 04:33:08;;;;;;;7.23;3.03;;;3.20;1.00;3.70;100862.00;;;;5009005;28;20546;-82
2022/02/05 04:35:36;;;;;;;6.73;3.00;;;3.10;1.00;3.70;100844.00;;;;5008124;28;20465;-82
2022/02/05 04:38:06;;;;;;;5.80;3.00;;;3.10;1.00;3.70;100838.00;;;;5008607;28;20507;-82
2022/02/05 04:40:40;;;;;;;4.97;3.10;;;3.10;1.00;3.70;100851.00;;;;5007560;28;20491;-81
2022/02/05 04:43:19;;;;;;;4.50;3.03;;;3.20;1.00;3.70;100834.00;;;;5008427;28;21602;-82
2022/02/05 04:46:14;;;;;;;4.30;2.80;;;3.20;1.00;3.70;100843.00;;;;5028763;28;20453;-82
2022/02/05 04:54:39;;;;;;;6.70;3.33;;;3.20;1.00;3.70;100845.00;;;;5008248;28;21041;-82
2022/02/05 04:57:24;;;;;;;6.73;3.30;;;3.20;1.00;3.70;100861.00;;;;5008219;28;21490;-81
2022/02/05 05:00:17;;;;;;;4.60;3.03;;;3.10;1.00;3.70;100856.00;;;;5009519;28;20462;-82
2022/02/05 05:03:07;;;;;;;4.97;2.60;;;3.20;1.00;3.70;100865.00;;;;5009825;28;20477;-81
2022/02/05 05:05:50;;;;;;;5.90;3.77;;;3.10;1.00;3.70;100862.00;;;;5011444;28;20465;-81
2022/02/05 05:08:40;;;;;;;6.07;3.07;;;3.10;1.00;3.70;100866.00;;;;5015119;28;20457;-82
2022/02/05 05:11:26;;;;;;;8.10;3.40;;;3.10;1.00;3.70;100868.00;;;;5021058;28;21212;-82
2022/02/05 05:19:30;;;;;;;8.20;3.47;;;3.10;1.00;3.60;100878.00;;;;5008343;28;20441;-82
2022/02/05 05:22:01;;;;;;;8.13;3.87;;;3.10;1.00;3.70;100856.00;;;;5025461;28;20486;-82
2022/02/05 05:24:31;;;;;;;5.93;3.17;;;3.10;1.00;3.70;100878.00;;;;5010623;28;20443;-82
2022/02/05 05:26:59;;;;;;;6.87;3.57;;;3.10;1.00;3.70;100881.00;;;;5011174;28;20452;-82
2022/02/05 05:29:27;;;;;;;4.47;2.63;;;3.10;1.00;3.60;100887.00;;;;5011383;28;20464;-81
2022/02/05 05:31:55;;;;;;;7.67;3.67;;;3.10;1.00;3.60;100874.00;;;;5010240;28;20478;-83
2022/02/05 05:34:24;;;;;;;8.00;3.80;;;3.10;1.00;3.60;100870.00;;;;5010298;28;20966;-82
2022/02/05 05:36:55;;;;;;;7.50;3.80;;;3.10;1.00;3.60;100861.00;;;;5015019;28;20450;-82
2022/02/05 05:39:24;;;;;;;11.03;3.80;;;3.10;1.00;3.60;100677.00;;;;5022717;28;20449;-81
2022/02/05 05:41:52;;;;;;;6.83;3.87;;;3.10;1.00;3.60;100883.00;;;;5019055;28;20485;-82
2022/02/05 05:44:55;;;;;;;6.03;3.60;;;2.90;1.00;3.60;100877.00;;;;5012607;28;20461;-83
2022/02/05 05:47:37;;;;;;;8.20;4.33;;;3.00;1.00;3.60;100883.00;;;;5009785;28;20457;-82
2022/02/05 05:50:33;;;;;;;5.87;3.60;;;3.00;1.00;3.60;100892.00;;;;5007554;28;20878;-82
2022/02/05 05:53:00;;;;;;;8.63;4.10;;;3.10;1.00;3.60;100886.00;;;;5010217;28;20529;-81
2022/02/05 05:55:29;;;;;;;6.20;3.63;;;3.10;1.00;3.60;100891.00;;;;5010383;28;20472;-82
2022/02/05 05:57:57;;;;;;;7.80;3.60;;;3.10;1.00;3.60;100890.00;;;;5014778;28;20476;-82
2022/02/05 06:00:26;;;;;;;7.40;3.47;;;3.10;1.00;3.60;100888.00;;;;5011498;28;20477;-82
2022/02/05 06:02:54;;;;;;;7.23;4.00;;;3.10;1.00;3.60;100898.00;;;;5014061;28;20474;-82
2022/02/05 06:05:23;;;;;;;9.93;4.07;;;3.10;1.00;3.60;100910.00;;;;5013722;28;20454;-84
2022/02/05 06:07:51;;;;;;;6.77;3.80;;;3.10;1.00;3.60;100913.00;;;;5014787;28;20537;-82
2022/02/05 06:10:21;;;;;;;3.83;3.40;;;3.10;1.00;217.30;158209.00;;;;5017999;28;20708;-82
2022/02/05 06:12:49;;;;;;;5.03;3.10;;;3.10;1.00;3.60;100914.00;;;;5033221;28;20457;-82
2022/02/05 06:15:17;;;;;;;6.83;3.40;;;3.10;1.00;3.60;100928.00;;;;5014868;28;20840;-81
2022/02/05 06:17:48;;;;;;;6.53;3.53;;;3.10;1.00;3.60;100930.00;;;;5005972;28;20466;-81
2022/02/05 06:20:16;;;;;;;8.93;4.10;;;3.10;1.00;3.50;100919.00;;;;5008054;28;20477;-81
2022/02/05 06:22:45;;;;;;;4.60;3.17;;;3.10;1.00;3.60;100931.00;;;;5007528;28;20952;-81
2022/02/05 06:25:13;;;;;;;8.90;4.60;;;3.10;1.00;3.50;100921.00;;;;5007597;28;20537;-81
2022/02/05 06:27:43;;;;;;;9.07;4.63;;;3.00;1.00;3.60;100945.00;;;;5024457;28;20491;-82
2022/02/05 06:30:12;;;;;;;7.07;3.57;;;3.00;1.00;3.50;100945.00;;;;5009460;28;20488;-80
2022/02/05 06:32:42;;;;;;;5.27;3.87;;;3.00;1.00;3.50;100938.00;;;;5009610;28;20468;-81
2022/02/05 06:35:12;;;;;;;7.53;3.90;;;3.00;1.00;3.50;100945.00;;;;5011202;28;20517;-81
2022/02/05 06:37:40;;;;;;;9.50;4.20;;;3.00;1.00;3.50;100931.00;;;;5038561;28;20445;-83
2022/02/05 06:40:10;;;;;;;5.57;3.33;;;3.00;1.00;3.50;100939.00;;;;5020458;28;20574;-82
2022/02/05 06:42:38;;;;;;;7.00;3.47;;;3.00;1.00;3.50;100953.00;;;;5043322;28;20493;-82
2022/02/05 06:45:09;;;;;;;6.70;3.90;;;3.00;1.00;3.50;100960.00;;;;5021884;28;20460;-81
2022/02/05 06:47:37;;;;;;;5.30;3.80;;;3.00;1.00;3.60;100961.00;;;;5012989;28;20488;-80
2022/02/05 06:50:07;;;;;;;7.97;4.17;;;3.00;1.00;3.60;100970.00;;;;5010943;28;20437;-80
2022/02/05 06:52:35;;;;;;;7.73;4.10;;;3.10;1.00;3.60;100951.00;;;;5008653;28;20500;-82
2022/02/05 06:55:05;;;;;;;7.43;3.90;;;3.10;1.00;3.60;100980.00;;;;5011923;28;20449;-83
2022/02/05 06:57:33;;;;;;;8.07;3.80;;;3.10;1.00;3.60;100971.00;;;;5016017;28;20794;-82
2022/02/05 07:00:01;;;;;;;11.20;3.70;;;3.10;1.00;3.60;100978.00;;;;5016046;28;20452;-83
2022/02/05 07:02:31;;;;;;;7.30;4.07;;;3.10;1.00;3.60;100974.00;;;;5016068;28;20482;-82
2022/02/05 07:05:00;;;;;;;9.77;3.83;;;3.10;1.00;3.60;100975.00;;;;5031345;28;20459;-82
2022/02/05 07:07:28;;;;;;;7.17;4.10;;;3.10;1.00;3.60;100994.00;;;;5016944;28;20454;-82
2022/02/05 07:09:57;;;;;;;6.87;4.00;;;3.20;1.00;3.60;100981.00;;;;5031727;28;20463;-82
2022/02/05 07:12:25;;;;;;;7.73;4.13;;;3.10;1.00;3.70;100985.00;;;;5010713;28;20519;-81
2022/02/05 07:15:02;;;;;;;6.30;3.60;;;3.20;1.00;3.70;100985.00;;;;5006267;28;20485;-81
2022/02/05 07:17:41;;;;;;;12.97;4.43;;;3.20;1.00;3.80;100985.00;;;;5007628;28;20461;-81
2022/02/05 07:20:19;;;;;;;7.00;4.60;;;3.50;1.00;3.80;100988.00;;;;5012938;28;20457;-81
2022/02/05 07:23:10;;;;;;;10.00;4.27;;;3.30;1.00;3.90;100989.00;;;;5010931;28;20473;-81
2022/02/05 07:31:15;;;;;;;12.77;5.50;;;3.70;1.00;4.10;100981.00;;;;5022802;28;20488;-82
2022/02/05 07:33:45;;;;;;;6.20;4.40;;;3.50;1.00;4.10;100987.00;;;;5023270;28;20450;-82
2022/02/05 07:36:15;;;;;;;6.97;4.10;;;3.60;1.00;4.20;101001.00;;;;5030114;28;20453;-82
2022/02/05 07:38:44;;;;;;;7.03;4.10;;;3.60;1.00;4.20;100998.00;;;;5032055;28;20441;-83
2022/02/05 07:41:13;;;;;;;7.83;4.50;;;3.70;1.00;4.30;100992.00;;;;5031212;28;20612;-81
2022/02/05 07:43:41;;;;;;;8.87;4.90;;;3.70;1.00;4.30;100989.00;;;;5014763;28;20561;-83
2022/02/05 07:46:13;;;;;;;10.07;4.43;;;3.90;1.00;4.40;100994.00;;;;5016934;28;20508;-83
2022/02/05 07:48:43;;;;;;;9.37;4.40;;;3.80;1.00;4.40;101004.00;;;;5033507;28;20468;-80
2022/02/05 07:51:12;;;;;;;6.37;3.90;;;3.80;1.00;4.40;101007.00;;;;5014835;28;20509;-83
2022/02/05 07:53:41;;;;;;;7.50;4.90;;;3.80;1.00;4.40;101023.00;;;;5013577;28;20461;-83
2022/02/05 07:56:09;;;;;;;7.70;3.97;;;3.90;1.00;4.50;101019.00;;;;5012194;28;20819;-82
2022/02/05 07:58:38;;;;;;;7.80;3.77;;;3.90;1.00;4.50;101013.00;;;;5011676;28;20460;-81
2022/02/05 08:01:06;;;;;;;6.97;4.03;;;4.00;1.00;4.50;101018.00;;;;5012885;28;20477;-81
2022/02/05 08:03:35;;;;;;;7.87;4.00;;;4.00;1.00;4.60;101017.00;;;;5014209;28;20981;-82
2022/02/05 08:06:13;;;;;;;5.07;4.10;;;4.00;1.00;4.60;101021.00;;;;5028162;28;20464;-81
2022/02/05 08:08:41;;;;;;;7.37;4.80;;;4.10;1.00;4.70;101018.00;;;;5041466;28;20489;-80
2022/02/05 08:11:13;;;;;;;8.73;4.57;;;4.10;1.00;4.70;101015.00;;;;5025139;28;21137;-82
2022/02/05 08:13:43;;;;;;;7.37;4.83;;;4.20;1.00;4.70;101018.00;;;;5025295;28;20549;-82
2022/02/05 08:16:26;;;;;;;19.77;5.13;;;4.20;1.00;4.70;101025.00;;;;5017831;28;20481;-82
2022/02/05 08:18:54;;;;;;;5.30;4.63;;;4.20;1.00;4.80;101030.00;;;;5019803;28;20977;-82
2022/02/05 08:21:24;;;;;;;8.13;4.87;;;4.20;1.00;4.80;101041.00;;;;5019545;28;20562;-82
2022/02/05 08:23:52;;;;;;;12.77;5.40;;;4.30;1.00;4.90;101039.00;;;;5026834;28;20488;-82
2022/02/05 08:26:27;;;;;;;9.90;5.63;;;4.40;1.00;4.90;101044.00;;;;5028695;28;20441;-83
2022/02/05 08:28:56;;;;;;;9.10;5.10;;;4.40;1.00;5.00;101045.00;;;;5023562;28;20469;-84
2022/02/05 08:31:25;;;;;;;9.57;4.80;;;4.60;1.00;5.00;101042.00;;;;5015584;28;20472;-82
2022/02/05 08:33:53;;;;;;;6.40;4.10;;;4.50;1.00;5.00;101051.00;;;;5010559;28;20462;-80
2022/02/05 08:36:25;;;;;;;9.83;4.87;;;4.60;1.00;5.10;101051.00;;;;5009185;28;20500;-81
2022/02/05 08:38:55;;;;;;;6.43;4.20;;;4.60;1.00;5.20;101049.00;;;;5010793;28;20489;-82
2022/02/05 08:41:24;;;;;;;8.07;4.77;;;4.70;1.00;5.20;101030.00;;;;5009028;28;20477;-82
2022/02/05 08:43:52;;;;;;;8.43;4.50;;;4.80;1.00;5.20;101046.00;;;;5006676;28;20480;-81
2022/02/05 08:46:21;;;;;;;9.70;4.90;;;4.70;1.00;5.30;101049.00;;;;5010830;28;20468;-82
2022/02/05 08:48:49;;;;;;;6.60;4.40;;;4.80;1.00;5.40;101052.00;;;;5010648;28;20490;-82
2022/02/05 08:51:17;;;;;;;11.50;4.90;;;5.10;1.00;5.50;101064.00;;;;5020392;28;20542;-81
2022/02/05 08:53:47;;;;;;;7.17;4.40;;;5.00;1.00;5.60;101064.00;;;;5015701;28;20458;-82
2022/02/05 08:56:15;;;;;;;9.67;4.23;;;5.10;1.00;5.60;101059.00;;;;5010918;28;20462;-81
2022/02/05 08:58:44;;;;;;;5.70;4.10;;;5.10;1.00;5.60;101075.00;;;;5008929;28;20446;-82
2022/02/05 09:01:16;;;;;;;6.80;4.50;;;5.10;1.00;5.60;101081.00;;;;5008252;28;20466;-82
2022/02/05 09:03:57;;;;;;;11.17;4.87;;;5.10;1.00;5.60;101080.00;;;;5008930;28;20469;-81
2022/02/05 09:06:29;;;;;;;6.50;4.53;;;5.20;1.00;5.70;101081.00;;;;5007942;28;20456;-82
2022/02/05 09:09:13;;;;;;;12.70;5.63;;;5.30;1.00;5.70;101081.00;;;;5008322;28;20457;-81
2022/02/05 09:11:46;;;;;;;7.90;4.93;;;5.20;1.00;5.70;101086.00;;;;5009716;28;20478;-83
2022/02/05 09:14:28;;;;;;;9.07;5.20;;;5.30;1.00;5.80;101088.00;;;;5013205;28;20469;-82
2022/02/05 09:16:56;;;;;;;9.67;5.43;;;5.40;1.00;5.90;101093.00;;;;5013391;28;20457;-81
2022/02/05 09:19:24;;;;;;;6.90;4.50;;;5.40;1.00;5.90;101108.00;;;;5013551;28;20453;-81
2022/02/05 09:21:53;;;;;;;7.67;4.40;;;5.50;1.00;6.00;101104.00;;;;5013992;28;20476;-82
2022/02/05 09:24:24;;;;;;;11.47;4.70;;;5.50;1.00;6.10;101109.00;;;;5013586;28;20509;-82
2022/02/05 09:26:58;;;;;;;9.10;5.33;;;5.60;1.00;6.10;101088.00;;;;5016648;28;20522;-82
2022/02/05 09:29:27;;;;;;;8.90;4.80;;;5.70;1.00;6.20;101103.00;;;;5027342;28;20529;-82
2022/02/05 09:31:56;;;;;;;8.57;4.50;;;5.80;1.00;6.40;101118.00;;;;5021654;28;20488;-83
2022/02/05 09:34:24;;;;;;;9.90;4.43;;;6.00;1.00;6.50;101100.00;;;;5042443;28;20846;-79
2022/02/05 09:36:53;;;;;;;6.73;4.73;;;6.20;1.00;6.50;101101.00;;;;5010995;28;20464;-82
2022/02/05 09:39:22;;;;;;;8.33;4.93;;;6.20;1.00;6.60;101102.00;;;;5024953;28;20943;-81
2022/02/05 09:41:50;;;;;;;7.20;5.30;;;6.30;1.00;6.60;101105.00;;;;5009998;28;21120;-81
2022/02/05 09:44:19;;;;;;;8.23;4.33;;;6.30;1.00;6.60;101115.00;;;;5034948;28;20477;-80
2022/02/05 09:46:47;;;;;;;8.07;4.23;;;6.30;1.00;6.70;101114.00;;;;5028817;28;21057;-82
2022/02/05 09:49:17;;;;;;;9.70;3.60;;;6.30;1.00;6.70;101127.00;;;;5018626;28;20868;-82
2022/02/05 09:51:55;;;;;;;11.87;4.10;;;6.40;1.00;6.70;101122.00;;;;5009024;28;20951;-83
2022/02/05 09:54:25;;;;;;;8.27;4.10;;;6.40;1.00;6.80;101126.00;;;;5007884;28;20472;-82
2022/02/05 09:56:53;;;;;;;5.93;4.40;;;6.40;1.00;6.80;101116.00;;;;5008763;28;20454;-82
2022/02/05 09:59:21;;;;;;;7.73;4.40;;;6.40;1.00;6.90;101120.00;;;;5007979;28;20458;-80
2022/02/05 10:01:50;;;;;;;9.03;4.23;;;6.50;1.00;6.90;101125.00;;;;5022901;28;20493;-82
2022/02/05 10:04:18;;;;;;;6.10;3.43;;;6.70;1.00;7.00;101124.00;;;;5029073;28;20472;-82
2022/02/05 10:06:49;;;;;;;7.00;4.10;;;6.70;1.00;7.10;101119.00;;;;5008858;28;20465;-81
2022/02/05 10:09:18;;;;;;;11.77;5.30;;;6.80;1.00;7.20;101131.00;;;;5022397;28;20464;-81
2022/02/05 10:11:52;;;;;;;9.40;4.70;;;6.80;1.00;7.20;101121.00;;;;5007847;28;20477;-81
2022/02/05 10:14:25;;;;;;;7.13;4.73;;;6.90;1.00;7.20;101132.00;;;;5007593;28;20464;-82
2022/02/05 10:16:56;;;;;;;6.37;3.20;;;6.90;1.00;7.40;101123.00;;;;5006340;28;20885;-81
2022/02/05 10:19:25;;;;;;;5.23;3.40;;;7.10;1.00;7.20;101127.00;;;;5007068;28;20446;-81
2022/02/05 10:22:05;;;;;;;11.27;3.90;;;7.00;1.00;7.30;101124.00;;;;5021913;28;20484;-80
2022/02/05 10:24:34;;;;;;;8.43;4.20;;;6.90;1.00;7.30;101115.00;;;;5009040;28;20473;-81
2022/02/05 10:27:04;;;;;;;10.33;3.70;;;6.90;1.00;7.40;101105.00;;;;5008657;28;20454;-81
2022/02/05 10:29:39;;;;;;;5.80;3.77;;;7.10;1.00;7.40;101115.00;;;;5009499;28;20458;-82
2022/02/05 10:32:12;;;;;;;7.50;3.27;;;7.10;1.00;7.50;101104.00;;;;5010254;28;20479;-83
2022/02/05 10:34:56;;;;;;;7.33;3.50;;;7.20;1.00;7.80;101129.00;;;;5013650;28;20974;-83
2022/02/05 10:37:33;;;;;;;6.87;3.93;;;7.50;1.00;7.70;101106.00;;;;5009896;28;20451;-84
2022/02/05 10:40:10;;;;;;;4.43;3.03;;;7.40;1.00;7.70;101109.00;;;;5009286;28;20483;-83
2022/02/05 10:43:03;;;;;;;4.90;2.90;;;7.50;1.00;7.70;101093.00;;;;5021482;28;20491;-82
2022/02/05 10:45:44;;;;;;;4.73;3.13;;;7.40;1.00;7.90;101109.00;;;;5010404;28;20470;-81
2022/02/05 10:48:15;;;;;;;6.37;3.20;;;7.50;1.00;8.00;101087.00;;;;5027503;28;20970;-80
2022/02/05 10:50:45;;;;;;;5.33;2.90;;;7.60;1.00;8.20;101114.00;;;;5008533;28;20485;-83
2022/02/05 10:53:24;;;;;;;5.20;2.87;;;7.80;1.00;8.30;101091.00;;;;5014270;28;20462;-85
2022/02/05 10:56:02;;;;;;;7.63;2.73;;;8.00;1.00;8.50;101106.00;;;;5017765;28;20445;-84
2022/02/05 10:58:58;;;;;;;6.03;2.80;;;8.20;1.00;8.50;101095.00;;;;5034418;28;20509;-84
2022/02/05 11:07:08;;;;;;;5.87;2.80;;;8.20;1.00;8.50;101089.00;;;;5017198;28;20956;-84
2022/02/05 11:09:38;;;;;;;4.43;2.67;;;8.10;1.00;8.30;101092.00;;;;5028669;28;20496;-85
2022/02/05 11:15:23;;;;;;;4.63;2.87;;;7.50;1.00;8.30;101083.00;;;;5027097;28;20445;-79
2022/02/05 11:20:27;;;;;;;5.53;3.60;;;7.70;1.00;8.10;101101.00;;;;5013137;28;20602;-84
2022/02/05 11:23:00;;;;;;;3.97;2.03;;;7.50;1.00;8.00;101100.00;;;;5008910;28;20465;-80
2022/02/05 11:25:34;;;;;;;7.10;2.77;;;7.40;1.00;7.90;101109.00;;;;5004846;28;20552;-82
2022/02/05 11:28:04;;;;;;;3.60;2.50;;;7.40;1.00;7.80;101109.00;;;;5030929;28;20465;-81
2022/02/05 11:30:39;;;;;;;4.63;2.57;;;7.30;1.00;8.00;101095.00;;;;5011970;28;20473;-81
2022/02/05 11:33:22;;;;;;;7.20;2.50;;;7.40;1.00;8.30;101092.00;;;;5014616;28;20536;-82
2022/02/05 11:36:39;;;;;;;4.70;2.00;;;7.70;1.00;8.40;101100.00;;;;5039685;28;20650;-79
2022/02/05 11:39:02;;;;;;;6.20;2.90;;;8.00;1.00;8.50;101086.00;;;;5027367;28;20457;-80
2022/02/05 11:41:33;;;;;;;3.87;2.30;;;7.90;1.00;8.20;101104.00;;;;5024735;28;20488;-80
2022/02/05 11:44:22;;;;;;;6.07;2.77;;;7.60;1.00;8.30;101096.00;;;;5020629;28;20445;-78
2022/02/05 11:47:31;;;;;;;5.10;2.83;;;7.70;1.00;8.50;101090.00;;;;5035149;28;20544;-79
2022/02/05 11:50:19;;;;;;;4.30;2.30;;;7.90;1.00;8.40;101082.00;;;;5014353;28;20464;-84
2022/02/05 11:53:10;;;;;;;4.67;2.60;;;7.80;1.00;8.60;101075.00;;;;5015762;28;20955;-81
2022/02/05 11:55:43;;;;;;;6.47;3.43;;;8.00;1.00;8.70;101075.00;;;;5016621;28;20489;-82
2022/02/05 11:58:13;;;;;;;4.80;3.00;;;8.10;1.00;8.80;101085.00;;;;5014780;28;20464;-80
2022/02/05 12:00:48;;;;;;;5.13;2.70;;;8.30;1.00;8.70;101084.00;;;;5016109;28;20507;-83
2022/02/05 12:03:36;;;;;;;5.40;2.27;;;8.40;1.00;8.50;101073.00;;;;5033881;28;20970;-83
2022/02/05 12:06:11;;;;;;;6.30;2.80;;;8.00;1.00;8.10;101087.00;;;;5013498;28;20485;-82
2022/02/05 12:08:44;;;;;;;4.17;2.73;;;7.60;1.00;8.10;101070.00;;;;5017254;28;20533;-83
2022/02/05 12:11:30;;;;;;;3.80;2.37;;;7.50;1.00;8.00;101095.00;;;;5024090;28;20537;-81
2022/02/05 12:14:17;;;;;;;4.97;2.70;;;7.60;1.00;7.90;101090.00;;;;5046612;28;20445;-82
2022/02/05 12:17:14;;;;;;;5.27;2.73;;;7.50;1.00;7.80;101088.00;;;;5021589;28;20852;-82
2022/02/05 12:20:08;;;;;;;7.10;3.17;;;7.30;1.00;7.90;101103.00;;;;5018020;28;20456;-79
2022/02/05 12:23:07;;;;;;;7.73;3.30;;;7.40;1.00;7.90;101099.00;;;;5015735;28;20496;-80
2022/02/05 12:26:14;;;;;;;5.00;3.00;;;7.40;1.00;7.90;101106.00;;;;5013925;28;20556;-80
2022/02/05 12:28:44;;;;;;;6.67;2.70;;;7.30;1.00;8.00;101072.00;;;;5014339;28;20476;-80
2022/02/05 12:31:36;;;;;;;8.10;2.70;;;7.50;1.00;8.10;101069.00;;;;5013292;28;20560;-80
2022/02/05 12:34:11;;;;;;;5.20;2.53;;;7.60;1.00;8.30;101056.00;;;;5014303;28;20454;-82
2022/02/05 12:36:45;;;;;;;7.83;2.23;;;7.80;1.00;8.40;101074.00;;;;5015963;28;20449;-79
2022/02/05 12:39:24;;;;;;;3.70;2.10;;;8.00;1.00;8.60;101069.00;;;;5011630;28;20449;-79
2022/02/05 12:41:58;;;;;;;3.83;2.37;;;8.30;1.00;8.60;101061.00;;;;5011142;28;20478;-80
2022/02/05 12:44:29;;;;;;;9.83;2.47;;;8.30;1.00;8.70;101054.00;;;;5009606;28;20442;-78
2022/02/05 12:47:02;;;;;;;5.20;2.20;;;8.30;1.00;8.80;101033.00;;;;5009574;28;20470;-81
2022/02/05 12:49:38;;;;;;;5.67;2.60;;;8.30;1.00;8.90;101047.00;;;;5009529;28;20433;-79
2022/02/05 12:52:08;;;;;;;5.83;2.30;;;8.50;1.00;9.00;101042.00;;;;5010347;28;21028;-80
2022/02/05 12:54:45;;;;;;;3.60;2.00;;;8.70;1.00;9.00;101044.00;;;;5013887;28;20458;-80
2022/02/05 12:57:25;;;;;;;5.67;2.47;;;8.60;1.00;9.10;101032.00;;;;5008991;28;20449;-80
2022/02/05 12:59:55;;;;;;;4.73;2.43;;;8.70;1.00;9.30;101022.00;;;;5007956;28;20982;-79
2022/02/05 13:02:27;;;;;;;5.10;2.10;;;8.80;1.00;9.50;100995.00;;;;5006081;28;20462;-82
2022/02/05 13:04:57;;;;;;;7.90;2.20;;;9.10;1.00;9.50;100968.00;;;;5008565;28;20544;-79
2022/02/05 13:07:28;;;;;;;5.97;2.37;;;9.00;1.00;9.50;100968.00;;;;5006995;28;20961;-80